Time;durP1;ratioP1;P1;durP2;ratioP2;P2;SDS_P1;SDS_P2;PMS_P1;PMS_P2;Temp;Humidity;BMP_temperature;BMP_pressure;BME280_temperature;BME280_humidity;BME280_pressure;Samples;Min_cycle;Max_cycle;Signal;HPM_P1;HPM_P2
2023/05/21 00:00:58;;;;;;;6.43;5.32;;;;;;;12.59;98.47;101948.13;10382462;28;20124;-80
2023/05/21 00:06:00;;;;;;;6.47;5.88;;;;;;;12.59;98.68;101945.41;10382599;28;20405;-80
2023/05/21 00:11:19;;;;;;;6.00;5.07;;;;;;;12.58;99.29;101944.59;10381154;28;20367;-80
2023/05/21 00:16:19;;;;;;;7.35;6.63;;;;;;;12.55;99.21;101945.78;10384200;28;20034;-80
2023/05/21 00:21:24;;;;;;;18.30;5.97;;;;;;;12.55;98.59;101931.38;10364388;28;20431;-79
2023/05/21 00:26:25;;;;;;;17.98;5.35;;;;;;;12.48;99.19;101931.25;10380172;28;20034;-80
2023/05/21 00:31:26;;;;;;;8.68;5.95;;;;;;;12.53;100.00;101927.97;10380643;28;20034;-79
2023/05/21 00:36:26;;;;;;;6.60;5.47;;;;;;;12.47;99.63;101926.84;10396139;28;20438;-81
2023/05/21 00:41:29;;;;;;;7.25;5.75;;;;;;;12.46;99.77;101929.75;10396129;28;20058;-79
2023/05/21 00:46:29;;;;;;;7.38;5.07;;;;;;;12.44;100.00;101926.38;10381377;28;20125;-80
2023/05/21 00:51:30;;;;;;;8.18;6.57;;;;;;;12.45;100.00;101922.66;10398204;28;20175;-79
2023/05/21 00:56:31;;;;;;;5.68;4.40;;;;;;;12.40;100.00;101916.91;10396511;28;20034;-79
2023/05/21 01:01:32;;;;;;;5.32;4.78;;;;;;;12.33;100.00;101914.94;10380096;28;20120;-80
2023/05/21 01:06:34;;;;;;;6.13;5.57;;;;;;;12.33;100.00;101920.34;10377719;28;20069;-81
2023/05/21 01:11:43;;;;;;;9.70;6.10;;;;;;;12.34;100.00;101908.47;10378699;28;20088;-80
2023/05/21 01:16:51;;;;;;;11.73;5.65;;;;;;;12.38;100.00;101910.81;10381250;28;20065;-81
2023/05/21 01:21:55;;;;;;;5.68;5.07;;;;;;;12.40;100.00;101909.59;10362932;28;20053;-79
2023/05/21 01:26:57;;;;;;;7.05;4.90;;;;;;;12.47;100.00;101907.81;10394722;28;20029;-80
2023/05/21 01:32:05;;;;;;;4.88;4.43;;;;;;;12.54;100.00;101907.94;10380551;28;20037;-80
2023/05/21 01:37:22;;;;;;;7.50;5.65;;;;;;;12.64;100.00;101903.06;10395045;28;20042;-79
2023/05/21 01:42:24;;;;;;;14.37;5.90;;;;;;;12.77;100.00;101902.44;10378728;28;20054;-80
2023/05/21 01:47:24;;;;;;;4.95;4.43;;;;;;;12.87;100.00;101908.41;10381131;28;20136;-80
2023/05/21 01:52:26;;;;;;;7.10;5.18;;;;;;;12.96;100.00;101914.59;10378659;28;20460;-80
2023/05/21 01:57:27;;;;;;;6.47;5.00;;;;;;;13.03;100.00;101907.38;10395413;28;20466;-81
2023/05/21 02:02:27;;;;;;;5.97;5.47;;;;;;;13.05;100.00;101899.88;10380297;28;20062;-81
2023/05/21 02:07:31;;;;;;;5.90;5.03;;;;;;;13.09;100.00;101901.19;10379708;28;20083;-79
2023/05/21 02:12:37;;;;;;;10.10;4.60;;;;;;;13.12;100.00;101903.53;10379091;28;20480;-80
2023/05/21 02:17:37;;;;;;;5.85;5.25;;;;;;;13.19;100.00;101909.88;10382030;28;20050;-81
2023/05/21 02:22:38;;;;;;;7.38;5.60;;;;;;;13.21;100.00;101907.00;10377628;28;20091;-80
2023/05/21 02:27:39;;;;;;;8.27;5.75;;;;;;;13.23;100.00;101907.63;10395161;28;20066;-79
2023/05/21 02:32:42;;;;;;;6.55;5.57;;;;;;;13.25;100.00;101898.28;10393422;28;20033;-80
2023/05/21 02:37:43;;;;;;;10.88;5.70;;;;;;;13.31;100.00;101901.28;10393216;28;20037;-80
2023/05/21 02:42:43;;;;;;;8.13;5.78;;;;;;;13.33;99.92;101901.91;10376892;28;20081;-81
2023/05/21 02:47:44;;;;;;;9.15;5.88;;;;;;;13.32;100.00;101894.78;10361514;28;20030;-81
2023/05/21 02:52:44;;;;;;;7.30;5.85;;;;;;;13.34;100.00;101900.91;10377833;28;20037;-79
2023/05/21 02:57:45;;;;;;;10.55;6.07;;;;;;;13.34;100.00;101898.19;10393629;28;20030;-79
2023/05/21 03:02:45;;;;;;;10.23;5.20;;;;;;;13.38;100.00;101891.31;10391571;28;20184;-80
2023/05/21 03:07:45;;;;;;;6.55;4.97;;;;;;;13.38;100.00;101889.44;10376575;28;20037;-81
2023/05/21 03:12:46;;;;;;;11.15;5.75;;;;;;;13.42;100.00;101898.03;10377101;28;20463;-80
2023/05/21 03:17:47;;;;;;;7.95;5.47;;;;;;;13.46;100.00;101889.31;10364231;28;20073;-80
2023/05/21 03:22:48;;;;;;;6.03;5.45;;;;;;;13.48;100.00;101886.41;10379138;28;20437;-81
2023/05/21 03:27:50;;;;;;;5.70;5.15;;;;;;;13.53;100.00;101885.81;10376985;28;20198;-79
2023/05/21 03:32:51;;;;;;;7.65;4.65;;;;;;;13.57;100.00;101881.69;10377411;28;20022;-80
2023/05/21 03:37:51;;;;;;;6.22;5.43;;;;;;;13.60;99.72;101879.41;10359427;28;20101;-80
2023/05/21 03:42:52;;;;;;;6.05;5.45;;;;;;;13.63;99.96;101870.88;10375522;28;20072;-79
2023/05/21 03:47:52;;;;;;;5.07;4.63;;;;;;;13.67;100.00;101871.31;10378215;28;20168;-81
2023/05/21 03:52:53;;;;;;;10.10;6.47;;;;;;;13.64;100.00;101877.97;10359207;28;20054;-80
2023/05/21 03:57:53;;;;;;;5.95;5.45;;;;;;;13.71;100.00;101880.78;10392056;28;20057;-81
2023/05/21 04:02:54;;;;;;;4.80;4.35;;;;;;;13.75;100.00;101889.38;10375660;28;20077;-81
2023/05/21 04:07:55;;;;;;;6.35;5.78;;;;;;;13.79;100.00;101880.66;10359015;28;20057;-80
2023/05/21 04:12:55;;;;;;;7.03;5.45;;;;;;;13.84;100.00;101885.50;10374006;28;20433;-79
2023/05/21 04:17:57;;;;;;;8.52;5.50;;;;;;;13.86;100.00;101884.28;10392638;28;20084;-82
2023/05/21 04:22:57;;;;;;;9.02;5.70;;;;;;;13.91;100.00;101889.13;10360256;28;20030;-79
2023/05/21 04:27:58;;;;;;;7.30;6.57;;;;;;;13.96;100.00;101883.94;10391758;28;20378;-80
2023/05/21 04:32:59;;;;;;;10.82;6.18;;;;;;;13.99;100.00;101875.38;10389759;28;20398;-80
2023/05/21 04:38:00;;;;;;;9.73;5.55;;;;;;;14.05;100.00;101885.50;10390625;28;20137;-81
2023/05/21 04:43:01;;;;;;;8.50;6.00;;;;;;;14.10;100.00;101885.75;10378046;28;20077;-80
2023/05/21 04:48:02;;;;;;;14.00;5.78;;;;;;;14.17;100.00;101883.91;10365893;28;20497;-81
2023/05/21 04:53:02;;;;;;;4.90;4.50;;;;;;;14.27;100.00;101882.75;10381015;28;20116;-81
2023/05/21 04:58:03;;;;;;;9.25;6.47;;;;;;;14.33;100.00;101879.22;10382690;28;20032;-80
2023/05/21 05:03:04;;;;;;;8.15;5.45;;;;;;;14.47;100.00;101878.25;10364849;28;20096;-81
2023/05/21 05:08:05;;;;;;;6.15;4.68;;;;;;;14.60;100.00;101872.09;10379986;28;20037;-79
2023/05/21 05:13:06;;;;;;;10.40;4.90;;;;;;;14.72;100.00;101869.66;10397202;28;20038;-80
2023/05/21 05:18:10;;;;;;;9.10;6.40;;;;;;;14.87;100.00;101881.28;10380664;28;20030;-81
2023/05/21 05:23:11;;;;;;;6.68;6.07;;;;;;;15.02;100.00;101873.75;10381269;28;20037;-79
2023/05/21 05:28:12;;;;;;;5.75;5.15;;;;;;;15.08;100.00;101866.66;10396927;28;20120;-81
2023/05/21 05:33:12;;;;;;;6.68;5.20;;;;;;;15.13;100.00;101857.88;10380223;28;20416;-80
2023/05/21 05:38:13;;;;;;;7.60;5.65;;;;;;;15.13;100.00;101857.88;10378218;28;20374;-80
2023/05/21 05:43:13;;;;;;;6.00;4.57;;;;;;;15.25;100.00;101851.63;10377910;28;20061;-81
2023/05/21 05:48:15;;;;;;;8.13;5.53;;;;;;;15.31;100.00;101853.50;10363641;28;20429;-79
2023/05/21 05:53:16;;;;;;;17.77;5.60;;;;;;;15.38;100.00;101831.72;10393023;28;20038;-80
2023/05/21 05:58:16;;;;;;;6.03;5.32;;;;;;;15.54;100.00;101846.88;10379768;28;20061;-79
2023/05/21 06:03:16;;;;;;;8.45;4.97;;;;;;;15.65;100.00;101848.13;10381859;28;20040;-80
2023/05/21 06:08:17;;;;;;;6.07;5.55;;;;;;;15.78;100.00;101864.56;10361622;28;20034;-81
2023/05/21 06:13:17;;;;;;;5.32;4.80;;;;;;;15.85;100.00;101856.38;10392845;28;20080;-80
2023/05/21 06:18:18;;;;;;;6.70;4.63;;;;;;;15.96;100.00;101867.53;10393046;28;20116;-80
2023/05/21 06:23:18;;;;;;;5.03;4.53;;;;;;;16.01;100.00;101853.22;10359397;28;20117;-79
2023/05/21 06:28:19;;;;;;;9.50;5.68;;;;;;;16.43;100.00;101864.75;10391405;28;20489;-80
2023/05/21 06:33:20;;;;;;;10.52;4.55;;;;;;;16.39;100.00;101853.41;10360243;28;20184;-80
2023/05/21 06:38:20;;;;;;;9.50;5.70;;;;;;;16.25;100.00;101860.78;10358928;28;20034;-80
2023/05/21 06:43:21;;;;;;;6.32;4.00;;;;;;;16.09;100.00;101863.94;10376364;28;20484;-80
2023/05/21 06:48:21;;;;;;;18.95;5.28;;;;;;;16.09;100.00;101858.50;10390707;28;20053;-78
2023/05/21 06:53:21;;;;;;;9.30;6.53;;;;;;;16.25;100.00;101868.16;10391164;28;20129;-80
2023/05/21 06:58:29;;;;;;;6.40;5.75;;;;;;;16.41;100.00;101866.88;10374822;28;20121;-81
2023/05/21 07:03:30;;;;;;;6.07;5.38;;;;;;;16.71;100.00;101872.69;10357512;28;20473;-80
2023/05/21 07:08:30;;;;;;;6.30;5.70;;;;;;;17.01;100.00;101885.91;10375451;28;20119;-79
2023/05/21 07:13:31;;;;;;;7.28;5.30;;;;;;;16.95;100.00;101893.06;10390251;28;20056;-80
2023/05/21 07:18:31;;;;;;;8.38;6.35;;;;;;;16.96;100.00;101883.78;10390279;28;20073;-80
2023/05/21 07:23:32;;;;;;;8.48;6.45;;;;;;;16.87;100.00;101891.38;10390680;28;20073;-80
2023/05/21 07:28:32;;;;;;;7.95;7.15;;;;;;;17.24;100.00;101875.25;10357741;28;20410;-79
2023/05/21 07:33:33;;;;;;;10.73;6.00;;;;;;;17.43;100.00;101893.47;10389386;28;20042;-78
2023/05/21 07:38:35;;;;;;;5.93;5.40;;;;;;;17.63;100.00;101874.19;10375149;28;20465;-80
2023/05/21 07:43:35;;;;;;;7.75;5.30;;;;;;;17.79;100.00;101882.97;10390652;28;20129;-80
2023/05/21 07:48:36;;;;;;;5.97;4.85;;;;;;;17.86;99.04;101879.09;10374473;28;20117;-81
2023/05/21 07:53:36;;;;;;;20.98;6.65;;;;;;;17.92;99.05;101871.91;10374849;28;20466;-79
2023/05/21 07:58:37;;;;;;;6.93;6.13;;;;;;;17.93;97.30;101878.22;10372508;28;20485;-80
2023/05/21 08:03:37;;;;;;;7.05;6.22;;;;;;;17.77;97.22;101882.34;10374448;28;20046;-80
2023/05/21 08:08:37;;;;;;;6.22;5.47;;;;;;;18.12;96.84;101875.34;10373289;28;20436;-80
2023/05/21 08:13:38;;;;;;;9.63;5.57;;;;;;;18.60;95.20;101865.56;10374425;28;20109;-80
2023/05/21 08:18:38;;;;;;;10.40;5.30;;;;;;;18.32;93.87;101869.69;10364242;28;20061;-81
2023/05/21 08:23:39;;;;;;;8.40;6.25;;;;;;;18.18;93.51;101870.00;10381065;28;20430;-80
2023/05/21 08:28:39;;;;;;;6.30;5.65;;;;;;;18.14;94.18;101875.09;10397633;28;20058;-81
2023/05/21 08:33:40;;;;;;;10.95;6.35;;;;;;;18.20;93.92;101865.97;10382703;28;20150;-81
2023/05/21 08:38:40;;;;;;;11.10;4.85;;;;;;;18.10;94.66;101862.91;10386276;28;20045;-79
2023/05/21 08:43:41;;;;;;;8.15;5.75;;;;;;;18.18;94.09;101864.53;10388099;28;20493;-80
2023/05/21 08:48:41;;;;;;;8.95;5.05;;;;;;;18.39;93.79;101858.63;10379600;28;20172;-81
2023/05/21 08:53:44;;;;;;;8.15;5.85;;;;;;;18.86;92.49;101856.25;10397059;28;20052;-79
2023/05/21 08:58:45;;;;;;;8.02;5.90;;;;;;;19.01;88.70;101853.94;10364844;28;20030;-81
2023/05/21 09:03:46;;;;;;;7.53;6.32;;;;;;;19.34;88.40;101857.34;10379962;28;20032;-81
2023/05/21 09:08:49;;;;;;;7.32;5.05;;;;;;;19.51;86.41;101853.69;10363273;28;20037;-79
2023/05/21 09:13:49;;;;;;;7.65;5.45;;;;;;;19.46;83.91;101849.97;10396533;28;20064;-81
2023/05/21 09:18:50;;;;;;;6.25;5.50;;;;;;;20.09;81.55;101843.91;10378861;28;20029;-79
2023/05/21 09:23:55;;;;;;;7.60;5.57;;;;;;;21.07;78.53;101838.69;10379860;28;20530;-80
2023/05/21 09:28:57;;;;;;;5.95;5.30;;;;;;;21.38;68.70;101837.38;10379200;28;20481;-80
2023/05/21 09:33:57;;;;;;;4.70;4.25;;;;;;;21.55;70.89;101837.41;10378437;28;20080;-81
2023/05/21 09:38:59;;;;;;;5.97;5.35;;;;;;;21.93;64.09;101824.84;10381277;28;20503;-81
2023/05/21 09:44:09;;;;;;;6.20;5.60;;;;;;;22.46;65.15;101823.44;10395121;28;20054;-80
2023/05/21 09:49:26;;;;;;;5.88;5.32;;;;;;;22.61;63.54;101814.53;10379313;28;20049;-80
2023/05/21 09:54:31;;;;;;;6.80;4.80;;;;;;;22.63;60.89;101817.88;10379159;28;20045;-80
2023/05/21 09:59:36;;;;;;;4.97;4.53;;;;;;;22.31;61.67;101818.56;10394069;28;20057;-82
2023/05/21 10:04:37;;;;;;;5.85;5.28;;;;;;;22.03;62.42;101827.75;10393566;28;20130;-82
2023/05/21 10:09:38;;;;;;;6.20;5.60;;;;;;;21.89;61.07;101823.63;10377031;28;20115;-83
2023/05/21 10:14:40;;;;;;;5.72;5.22;;;;;;;22.34;60.31;101818.03;10393503;28;20058;-81
2023/05/21 10:19:40;;;;;;;5.20;4.70;;;;;;;22.65;59.13;101812.91;10398531;28;20030;-81
2023/05/21 10:24:41;;;;;;;5.68;4.43;;;;;;;23.29;57.65;101809.56;10395717;28;20030;-82
2023/05/21 10:29:43;;;;;;;4.72;4.35;;;;;;;24.75;54.98;101805.41;10379916;28;20042;-82
2023/05/21 10:34:43;;;;;;;7.82;4.72;;;;;;;25.42;50.85;101800.91;10375757;28;20030;-79
2023/05/21 10:39:48;;;;;;;6.55;5.22;;;;;;;25.50;52.90;101808.69;10375207;28;20080;-79
2023/05/21 10:45:10;;;;;;;11.02;5.18;;;;;;;25.18;49.47;101805.31;10375206;28;20045;-79
2023/05/21 10:50:35;;;;;;;11.68;6.00;;;;;;;24.58;54.45;101796.50;10377262;28;20041;-78
2023/05/21 10:55:48;;;;;;;7.32;4.40;;;;;;;24.22;51.31;101795.41;10379763;28;20109;-80
2023/05/21 11:00:49;;;;;;;5.95;4.28;;;;;;;24.18;54.47;101789.56;10392137;28;20030;-79
2023/05/21 11:05:53;;;;;;;5.68;5.00;;;;;;;25.09;52.12;101774.50;10360425;28;20061;-80
2023/05/21 11:10:56;;;;;;;6.50;4.40;;;;;;;25.21;53.32;101772.34;10374911;28;20077;-79
2023/05/21 11:16:05;;;;;;;12.93;5.00;;;;;;;26.11;54.52;101768.19;10376996;28;20038;-80
2023/05/21 11:21:09;;;;;;;6.15;4.18;;;;;;;26.66;54.11;101767.16;10376060;28;20034;-80
2023/05/21 11:26:10;;;;;;;5.32;4.07;;;;;;;26.66;54.04;101769.94;10377437;28;20120;-80
2023/05/21 11:31:24;;;;;;;13.07;4.35;;;;;;;26.71;56.55;101766.34;10390414;28;20037;-80
2023/05/21 11:36:26;;;;;;;11.48;4.53;;;;;;;25.58;50.60;101759.31;10373334;28;20496;-78
2023/05/21 11:41:27;;;;;;;11.18;4.22;;;;;;;26.01;55.18;101749.59;10373666;28;20561;-79
2023/05/21 11:46:27;;;;;;;6.60;3.92;;;;;;;26.92;52.97;101736.47;10359906;28;20044;-81
2023/05/21 11:51:28;;;;;;;4.82;4.05;;;;;;;27.44;53.28;101736.94;10372980;28;20026;-79
2023/05/21 11:56:30;;;;;;;9.13;5.18;;;;;;;26.55;55.04;101728.63;10389509;28;20045;-79
2023/05/21 12:01:31;;;;;;;4.88;4.40;;;;;;;26.79;54.14;101721.25;10356960;28;20520;-78
2023/05/21 12:06:33;;;;;;;7.65;5.05;;;;;;;27.53;52.42;101726.84;10372530;28;20138;-80
2023/05/21 12:11:33;;;;;;;4.70;4.28;;;;;;;27.58;50.90;101715.69;10388581;28;20034;-78
2023/05/21 12:16:34;;;;;;;9.00;4.65;;;;;;;27.24;50.18;101719.31;10371606;28;20084;-79
2023/05/21 12:21:34;;;;;;;4.78;3.97;;;;;;;27.20;52.43;101720.19;10372269;28;20044;-80
2023/05/21 12:26:36;;;;;;;4.90;3.90;;;;;;;27.62;51.07;101722.31;10358527;28;20037;-80
2023/05/21 12:31:48;;;;;;;11.10;4.35;;;;;;;28.12;49.42;101711.81;10389452;28;20516;-79
2023/05/21 12:36:48;;;;;;;15.02;5.45;;;;;;;28.26;49.07;101709.97;10388296;28;20084;-79
2023/05/21 12:41:53;;;;;;;9.57;4.95;;;;;;;28.12;49.83;101708.22;10355609;28;20045;-82
2023/05/21 12:46:53;;;;;;;3.83;3.53;;;;;;;28.17;51.31;101713.69;10388463;28;20144;-81
2023/05/21 12:51:55;;;;;;;3.78;3.47;;;;;;;27.51;50.18;101706.88;10389503;28;20044;-82
2023/05/21 12:56:56;;;;;;;7.80;4.90;;;;;;;27.74;49.38;101713.59;10373410;28;20381;-81
2023/05/21 13:01:56;;;;;;;18.77;4.72;;;;;;;27.53;49.47;101705.41;10392667;28;20095;-79
2023/05/21 13:06:57;;;;;;;6.90;5.20;;;;;;;27.04;49.08;101711.91;10396645;28;20037;-80
2023/05/21 13:11:57;;;;;;;11.02;4.28;;;;;;;26.86;50.31;101710.63;10396919;28;20366;-80
2023/05/21 13:16:58;;;;;;;5.85;4.85;;;;;;;26.95;51.05;101710.88;10395609;28;20037;-78
2023/05/21 13:21:58;;;;;;;6.75;5.18;;;;;;;26.93;49.97;101704.78;10378438;28;20092;-80
2023/05/21 13:26:59;;;;;;;6.45;3.67;;;;;;;27.01;49.60;101706.13;10378587;28;20045;-79
2023/05/21 13:31:59;;;;;;;5.32;3.78;;;;;;;27.19;49.54;101712.97;10378183;28;20535;-79
2023/05/21 13:37:00;;;;;;;3.70;3.03;;;;;;;27.07;48.79;101694.66;10377366;28;20034;-78
2023/05/21 13:42:00;;;;;;;20.27;4.60;;;;;;;26.30;51.09;101704.53;10393909;28;20054;-78
2023/05/21 13:47:23;;;;;;;10.40;4.88;;;;;;;26.37;50.31;101702.28;10394183;28;20038;-77
2023/05/21 13:52:23;;;;;;;6.20;4.63;;;;;;;26.46;51.92;101689.47;10393834;28;20034;-80
2023/05/21 13:57:25;;;;;;;6.40;4.22;;;;;;;26.47;51.04;101691.13;10377267;28;20042;-79
2023/05/21 14:02:26;;;;;;;5.38;3.13;;;;;;;26.20;51.29;101689.56;10377267;28;20034;-78
2023/05/21 14:07:26;;;;;;;10.13;3.95;;;;;;;26.34;52.13;101680.63;10377411;28;20398;-78
2023/05/21 14:12:27;;;;;;;8.93;4.55;;;;;;;26.35;53.12;101677.56;10392214;28;20482;-79
2023/05/21 14:17:28;;;;;;;4.80;4.00;;;;;;;25.98;51.55;101687.16;10377308;28;20038;-80
2023/05/21 14:22:29;;;;;;;10.63;4.10;;;;;;;25.51;51.94;101668.91;10377160;28;20551;-82
2023/05/21 14:27:29;;;;;;;5.40;4.38;;;;;;;25.13;51.79;101680.56;10378211;28;20059;-77
2023/05/21 14:32:30;;;;;;;8.73;3.85;;;;;;;24.71;51.71;101671.34;10376919;28;20044;-80
2023/05/21 14:37:31;;;;;;;9.48;4.75;;;;;;;24.50;52.99;101677.94;10392942;28;20474;-78
2023/05/21 14:42:31;;;;;;;7.50;4.50;;;;;;;24.23;53.14;101670.59;10357883;28;20053;-80
2023/05/21 14:47:32;;;;;;;8.45;4.72;;;;;;;24.26;52.92;101670.06;10391808;28;20331;-81
2023/05/21 14:52:32;;;;;;;7.07;4.05;;;;;;;24.21;53.60;101661.72;10374632;28;20472;-76
2023/05/21 14:57:33;;;;;;;4.15;3.83;;;;;;;24.07;54.02;101655.03;10391214;28;20030;-79
2023/05/21 15:02:34;;;;;;;9.00;4.38;;;;;;;24.04;54.18;101661.13;10359460;28;20034;-80
2023/05/21 15:07:38;;;;;;;11.82;4.85;;;;;;;23.94;54.70;101669.38;10376669;28;20474;-79
2023/05/21 15:12:39;;;;;;;6.22;4.22;;;;;;;23.79;55.09;101659.03;10358362;28;20038;-79
2023/05/21 15:17:40;;;;;;;8.10;4.70;;;;;;;23.88;55.97;101654.66;10374595;28;20120;-80
2023/05/21 15:22:46;;;;;;;9.38;4.32;;;;;;;23.93;55.74;101653.84;10374137;28;20132;-80
2023/05/21 15:27:47;;;;;;;7.05;4.75;;;;;;;23.78;56.18;101649.91;10374065;28;20046;-79
2023/05/21 15:32:50;;;;;;;6.95;4.53;;;;;;;23.79;56.46;101648.81;10359402;28;20037;-80
2023/05/21 15:37:53;;;;;;;17.45;5.10;;;;;;;23.43;57.40;101654.09;10389982;28;20069;-79
2023/05/21 15:42:54;;;;;;;11.05;3.42;;;;;;;23.15;57.21;101649.72;10373206;28;20261;-80
2023/05/21 15:47:54;;;;;;;8.80;3.20;;;;;;;22.93;57.44;101646.16;10373873;28;20206;-79
2023/05/21 15:52:55;;;;;;;3.90;3.15;;;;;;;22.75;58.81;101645.47;10373927;28;20045;-79
2023/05/21 15:57:59;;;;;;;6.82;3.00;;;;;;;22.57;58.53;101643.06;10391308;28;20038;-79
2023/05/21 16:03:00;;;;;;;11.63;3.55;;;;;;;22.13;59.14;101645.00;10374971;28;20026;-80
2023/05/21 16:08:03;;;;;;;8.82;4.22;;;;;;;21.72;59.82;101633.44;10389618;28;20029;-80
2023/05/21 16:13:04;;;;;;;4.55;3.25;;;;;;;21.41;60.51;101649.53;10374695;28;20041;-80
2023/05/21 16:18:06;;;;;;;13.77;4.35;;;;;;;21.10;60.70;101657.25;10388913;28;20045;-79
2023/05/21 16:23:07;;;;;;;6.05;4.10;;;;;;;20.55;60.74;101666.16;10388183;28;20104;-79
2023/05/21 16:28:08;;;;;;;13.18;4.97;;;;;;;20.15;60.67;101669.72;10389092;28;20092;-79
2023/05/21 16:33:10;;;;;;;5.18;4.45;;;;;;;19.74;61.17;101649.56;10372558;28;20136;-78
2023/05/21 16:38:13;;;;;;;7.03;3.90;;;;;;;19.38;62.22;101664.38;10378317;28;20062;-80
2023/05/21 16:43:14;;;;;;;9.35;4.13;;;;;;;19.16;63.20;101660.53;10379784;28;20104;-79
2023/05/21 16:48:15;;;;;;;11.20;4.15;;;;;;;18.93;65.37;101658.56;10396171;28;20062;-80
2023/05/21 16:53:16;;;;;;;7.32;4.85;;;;;;;18.85;63.94;101658.88;10382325;28;20377;-80
2023/05/21 16:58:16;;;;;;;8.85;5.00;;;;;;;18.68;66.29;101661.44;10395903;28;20042;-79
2023/05/21 17:03:17;;;;;;;5.95;3.72;;;;;;;18.51;66.01;101658.50;10380490;28;20461;-80
2023/05/21 17:08:18;;;;;;;8.52;3.70;;;;;;;18.30;66.10;101655.19;10395590;28;20389;-79
2023/05/21 17:13:19;;;;;;;14.80;4.55;;;;;;;18.19;67.40;101658.72;10394889;28;20092;-79
2023/05/21 17:18:20;;;;;;;4.25;3.88;;;;;;;18.01;66.97;101648.56;10394866;28;20041;-79
2023/05/21 17:23:21;;;;;;;8.85;5.43;;;;;;;17.82;67.97;101653.22;10362287;28;20038;-79
2023/05/21 17:28:21;;;;;;;6.93;3.42;;;;;;;17.56;70.00;101654.28;10378256;28;20037;-79
2023/05/21 17:33:23;;;;;;;12.20;3.80;;;;;;;17.31;73.39;101648.84;10377923;28;20517;-79
2023/05/21 17:38:24;;;;;;;5.45;3.75;;;;;;;17.22;71.82;101646.59;10365921;28;20038;-79
2023/05/21 17:43:27;;;;;;;8.57;4.10;;;;;;;17.04;73.74;101647.38;10377882;28;20109;-78
2023/05/21 17:48:27;;;;;;;10.07;4.75;;;;;;;16.75;77.44;101652.41;10379180;28;20552;-79
2023/05/21 17:53:28;;;;;;;13.50;4.60;;;;;;;16.64;76.98;101648.44;10377576;28;20139;-79
2023/05/21 17:58:30;;;;;;;9.05;4.85;;;;;;;16.43;77.88;101648.78;10377343;28;20116;-80
2023/05/21 18:03:30;;;;;;;11.93;4.60;;;;;;;16.26;78.98;101667.56;10361812;28;20045;-79
2023/05/21 18:08:31;;;;;;;19.08;4.22;;;;;;;16.19;79.23;101658.56;10378273;28;20046;-79
2023/05/21 18:13:32;;;;;;;15.68;4.68;;;;;;;16.08;78.05;101656.50;10377434;28;20038;-79
2023/05/21 18:18:32;;;;;;;20.50;4.38;;;;;;;15.90;82.49;101657.19;10376664;28;20102;-79
2023/05/21 18:23:33;;;;;;;15.00;5.07;;;;;;;15.74;82.26;101659.34;10360564;28;20053;-79
2023/05/21 18:28:34;;;;;;;18.88;5.00;;;;;;;15.56;85.89;101653.66;10375565;28;20053;-79
2023/05/21 18:33:34;;;;;;;17.20;4.28;;;;;;;15.48;83.29;101662.09;10375184;28;20473;-79
2023/05/21 18:38:35;;;;;;;16.98;4.70;;;;;;;15.33;85.37;101665.00;10376614;28;20061;-79
2023/05/21 18:43:35;;;;;;;13.57;5.90;;;;;;;15.20;86.74;101665.03;10377835;28;20137;-79
2023/05/21 18:48:36;;;;;;;10.40;5.18;;;;;;;15.11;86.67;101678.84;10395250;28;20034;-79
2023/05/21 18:53:38;;;;;;;7.68;5.22;;;;;;;15.04;87.83;101674.44;10374950;28;20038;-79
2023/05/21 18:58:38;;;;;;;16.08;5.10;;;;;;;14.92;87.69;101679.66;10390453;28;20030;-80
2023/05/21 19:03:38;;;;;;;24.83;5.68;;;;;;;14.80;86.69;101675.88;10389707;28;20038;-78
2023/05/21 19:08:40;;;;;;;10.32;4.95;;;;;;;14.62;91.29;101669.13;10376038;28;20125;-79
2023/05/21 19:13:41;;;;;;;12.02;6.28;;;;;;;14.52;90.04;101681.47;10395447;28;20065;-79
2023/05/21 19:18:41;;;;;;;10.02;5.50;;;;;;;14.43;91.49;101681.59;10375809;28;20037;-77
2023/05/21 19:23:41;;;;;;;16.17;5.28;;;;;;;14.31;91.69;101671.50;10378102;28;20088;-78
2023/05/21 19:28:42;;;;;;;11.85;4.50;;;;;;;14.21;91.79;101673.78;10393077;28;20038;-78
2023/05/21 19:33:42;;;;;;;9.75;6.13;;;;;;;14.08;95.70;101666.38;10376650;28;20045;-79
2023/05/21 19:38:47;;;;;;;18.80;5.63;;;;;;;14.01;94.59;101669.06;10374332;28;20441;-80
2023/05/21 19:43:47;;;;;;;11.07;5.60;;;;;;;13.93;91.80;101671.94;10376898;28;20069;-79
2023/05/21 19:48:49;;;;;;;20.40;5.90;;;;;;;13.85;94.95;101663.94;10395016;28;20058;-78
2023/05/21 19:53:53;;;;;;;15.07;6.53;;;;;;;13.79;92.39;101668.31;10391816;28;20088;-79
2023/05/21 19:58:54;;;;;;;20.10;5.35;;;;;;;13.72;91.75;101678.31;10389545;28;20038;-79
2023/05/21 20:03:59;;;;;;;15.02;6.40;;;;;;;13.65;92.02;101674.69;10372627;28;20042;-79
2023/05/21 20:09:00;;;;;;;7.65;5.53;;;;;;;13.54;92.98;101676.09;10372593;28;20030;-79
2023/05/21 20:14:01;;;;;;;10.50;6.45;;;;;;;13.49;93.04;101673.09;10379384;28;20125;-79
2023/05/21 20:19:04;;;;;;;19.08;7.60;;;;;;;13.43;94.50;101669.31;10380665;28;20125;-79
2023/05/21 20:24:15;;;;;;;20.83;8.57;;;;;;;13.40;95.35;101674.28;10397108;28;20038;-78
2023/05/21 20:29:17;;;;;;;22.88;9.48;;;;;;;13.37;97.32;101685.56;10380821;28;20022;-78
2023/05/21 20:34:40;;;;;;;17.05;7.78;;;;;;;13.35;97.13;101676.78;10380175;28;20056;-79
2023/05/21 20:39:44;;;;;;;11.85;7.72;;;;;;;13.31;96.13;101670.06;10379456;28;20059;-79
2023/05/21 20:44:51;;;;;;;15.65;8.02;;;;;;;13.30;95.57;101658.31;10356134;28;20065;-80
2023/05/21 20:49:58;;;;;;;24.73;9.75;;;;;;;13.25;96.15;101667.06;10328116;28;20084;-76
2023/05/21 20:55:03;;;;;;;17.10;8.32;;;;;;;13.18;98.71;101666.16;10325515;28;20173;-77
2023/05/21 21:05:15;;;;;;;15.77;8.57;;;;;;;13.09;100.00;101666.50;10510751;23;20087;-79
2023/05/21 21:10:16;;;;;;;20.08;8.52;;;;;;;13.06;100.00;101677.75;10264091;28;20059;-79
2023/05/21 21:15:17;;;;;;;11.70;8.18;;;;;;;13.03;100.00;101670.81;10266255;28;20074;-79
2023/05/21 21:20:38;;;;;;;17.60;8.57;;;;;;;12.99;100.00;101670.38;10264979;28;20362;-80
2023/05/21 21:25:43;;;;;;;21.42;9.45;;;;;;;12.96;100.00;101676.19;10282949;28;20030;-80
2023/05/21 21:30:46;;;;;;;15.20;8.55;;;;;;;12.92;100.00;101663.16;10278263;28;20129;-80
2023/05/21 21:35:46;;;;;;;18.63;8.07;;;;;;;12.90;100.00;101652.50;10295505;28;20069;-78
2023/05/21 21:40:48;;;;;;;19.33;8.50;;;;;;;12.87;100.00;101661.06;10262213;28;20614;-79
2023/05/21 21:45:48;;;;;;;15.13;8.50;;;;;;;12.86;100.00;101663.94;10264358;28;20038;-78
2023/05/21 21:50:49;;;;;;;23.95;10.07;;;;;;;12.83;100.00;101661.63;10247017;28;20043;-79
2023/05/21 21:55:50;;;;;;;17.05;8.75;;;;;;;12.79;100.00;101656.59;10294659;28;20050;-81
2023/05/21 22:00:57;;;;;;;19.23;9.45;;;;;;;12.78;100.00;101652.16;10274942;28;20288;-81
2023/05/21 22:05:57;;;;;;;26.92;11.18;;;;;;;12.75;100.00;101655.28;10260012;28;20073;-81
2023/05/21 22:10:58;;;;;;;24.20;11.23;;;;;;;12.76;100.00;101648.81;10277182;28;20047;-80
2023/05/21 22:15:58;;;;;;;18.60;10.48;;;;;;;12.72;100.00;101655.66;10296817;28;20058;-81
2023/05/21 22:21:12;;;;;;;18.52;9.98;;;;;;;12.71;100.00;101647.72;10300622;28;20470;-80
2023/05/21 22:26:14;;;;;;;13.93;8.25;;;;;;;12.69;100.00;101647.88;10299572;28;20042;-80
2023/05/21 22:31:18;;;;;;;18.40;10.60;;;;;;;12.69;100.00;101641.63;10298585;28;20070;-80
2023/05/21 22:36:26;;;;;;;19.10;10.75;;;;;;;12.68;100.00;101640.78;10277957;28;20047;-80
2023/05/21 22:41:52;;;;;;;16.63;10.93;;;;;;;12.66;100.00;101634.69;10293308;28;20030;-81
2023/05/21 22:46:55;;;;;;;13.83;8.43;;;;;;;12.63;100.00;101637.78;10277112;28;20062;-81
2023/05/21 22:52:22;;;;;;;37.63;11.80;;;;;;;12.64;100.00;101642.22;10243965;28;20078;-81
2023/05/21 22:57:32;;;;;;;24.10;10.63;;;;;;;12.65;100.00;101634.91;10276933;28;20046;-80
2023/05/21 23:02:54;;;;;;;27.48;12.27;;;;;;;12.64;100.00;101634.06;10290842;28;20523;-80